sensor_id;sensor_type;location;lat;lon;timestamp;P1;durP1;ratioP1;P2;durP2;ratioP2
33427;SDS011;19769;48.150;16.306;2022-09-29T00:00:24;3.00;;;1.80;;
33427;SDS011;19769;48.150;16.306;2022-09-29T00:02:53;2.55;;;1.70;;
33427;SDS011;19769;48.150;16.306;2022-09-29T00:05:19;2.42;;;1.65;;
33427;SDS011;19769;48.150;16.306;2022-09-29T00:07:45;2.65;;;1.70;;
33427;SDS011;19769;48.150;16.306;2022-09-29T00:10:11;2.83;;;1.75;;
33427;SDS011;19769;48.150;16.306;2022-09-29T00:12:38;3.45;;;2.00;;
33427;SDS011;19769;48.150;16.306;2022-09-29T00:15:04;3.17;;;1.92;;
33427;SDS011;19769;48.150;16.306;2022-09-29T00:17:30;2.75;;;2.00;;
33427;SDS011;19769;48.150;16.306;2022-09-29T00:19:56;2.75;;;2.00;;
33427;SDS011;19769;48.150;16.306;2022-09-29T00:22:22;2.83;;;2.08;;
33427;SDS011;19769;48.150;16.306;2022-09-29T00:24:48;4.10;;;2.20;;
33427;SDS011;19769;48.150;16.306;2022-09-29T00:27:15;3.10;;;2.10;;
33427;SDS011;19769;48.150;16.306;2022-09-29T00:29:44;3.72;;;2.42;;
33427;SDS011;19769;48.150;16.306;2022-09-29T00:32:10;3.63;;;2.28;;
33427;SDS011;19769;48.150;16.306;2022-09-29T00:34:36;3.78;;;2.30;;
33427;SDS011;19769;48.150;16.306;2022-09-29T00:37:02;3.50;;;2.63;;
33427;SDS011;19769;48.150;16.306;2022-09-29T00:39:28;3.63;;;2.72;;
33427;SDS011;19769;48.150;16.306;2022-09-29T00:41:54;5.05;;;2.60;;
33427;SDS011;19769;48.150;16.306;2022-09-29T00:46:58;3.10;;;2.33;;
33427;SDS011;19769;48.150;16.306;2022-09-29T00:49:28;2.95;;;2.35;;
33427;SDS011;19769;48.150;16.306;2022-09-29T00:52:10;3.78;;;2.47;;
33427;SDS011;19769;48.150;16.306;2022-09-29T00:54:45;3.78;;;2.53;;
33427;SDS011;19769;48.150;16.306;2022-09-29T00:57:30;3.58;;;2.70;;
33427;SDS011;19769;48.150;16.306;2022-09-29T01:00:02;4.03;;;2.70;;
33427;SDS011;19769;48.150;16.306;2022-09-29T01:02:32;4.38;;;2.50;;
33427;SDS011;19769;48.150;16.306;2022-09-29T01:05:02;3.22;;;2.40;;
33427;SDS011;19769;48.150;16.306;2022-09-29T01:07:33;3.42;;;2.40;;
33427;SDS011;19769;48.150;16.306;2022-09-29T01:09:59;3.55;;;2.40;;
33427;SDS011;19769;48.150;16.306;2022-09-29T01:12:25;3.00;;;2.50;;
33427;SDS011;19769;48.150;16.306;2022-09-29T01:14:51;4.85;;;2.20;;
33427;SDS011;19769;48.150;16.306;2022-09-29T01:17:19;2.70;;;2.00;;
33427;SDS011;19769;48.150;16.306;2022-09-29T01:24:57;2.35;;;1.50;;
33427;SDS011;19769;48.150;16.306;2022-09-29T01:33:22;2.53;;;1.70;;
33427;SDS011;19769;48.150;16.306;2022-09-29T01:41:06;2.08;;;1.58;;
33427;SDS011;19769;48.150;16.306;2022-09-29T01:44:03;2.47;;;1.67;;
33427;SDS011;19769;48.150;16.306;2022-09-29T01:46:49;2.63;;;1.60;;
33427;SDS011;19769;48.150;16.306;2022-09-29T01:49:19;3.75;;;1.77;;
33427;SDS011;19769;48.150;16.306;2022-09-29T01:54:21;2.53;;;1.90;;
33427;SDS011;19769;48.150;16.306;2022-09-29T01:57:06;2.30;;;1.75;;
33427;SDS011;19769;48.150;16.306;2022-09-29T01:59:39;2.55;;;1.85;;
33427;SDS011;19769;48.150;16.306;2022-09-29T02:02:11;2.65;;;1.90;;
33427;SDS011;19769;48.150;16.306;2022-09-29T02:07:15;2.83;;;1.85;;
33427;SDS011;19769;48.150;16.306;2022-09-29T02:09:46;2.85;;;1.80;;
33427;SDS011;19769;48.150;16.306;2022-09-29T02:12:17;1.88;;;1.30;;
33427;SDS011;19769;48.150;16.306;2022-09-29T02:14:47;2.65;;;1.50;;
33427;SDS011;19769;48.150;16.306;2022-09-29T02:17:18;3.03;;;1.55;;
33427;SDS011;19769;48.150;16.306;2022-09-29T02:20:05;2.75;;;1.40;;
33427;SDS011;19769;48.150;16.306;2022-09-29T02:22:33;2.30;;;1.30;;
33427;SDS011;19769;48.150;16.306;2022-09-29T02:24:59;2.72;;;1.52;;
33427;SDS011;19769;48.150;16.306;2022-09-29T02:27:26;2.15;;;1.48;;
33427;SDS011;19769;48.150;16.306;2022-09-29T02:29:53;2.00;;;1.35;;
33427;SDS011;19769;48.150;16.306;2022-09-29T02:32:22;3.55;;;1.65;;
33427;SDS011;19769;48.150;16.306;2022-09-29T02:34:49;3.17;;;1.45;;
33427;SDS011;19769;48.150;16.306;2022-09-29T02:39:57;3.58;;;1.55;;
33427;SDS011;19769;48.150;16.306;2022-09-29T02:42:30;3.28;;;1.75;;
33427;SDS011;19769;48.150;16.306;2022-09-29T02:53:17;4.28;;;2.00;;
33427;SDS011;19769;48.150;16.306;2022-09-29T02:56:19;3.08;;;1.80;;
33427;SDS011;19769;48.150;16.306;2022-09-29T02:58:38;3.05;;;1.70;;
33427;SDS011;19769;48.150;16.306;2022-09-29T03:01:32;3.10;;;2.00;;
33427;SDS011;19769;48.150;16.306;2022-09-29T03:03:59;3.17;;;2.25;;
33427;SDS011;19769;48.150;16.306;2022-09-29T03:06:25;3.95;;;2.40;;
33427;SDS011;19769;48.150;16.306;2022-09-29T03:08:52;3.55;;;2.22;;
33427;SDS011;19769;48.150;16.306;2022-09-29T03:11:17;5.25;;;3.17;;
33427;SDS011;19769;48.150;16.306;2022-09-29T03:13:43;5.80;;;3.33;;
33427;SDS011;19769;48.150;16.306;2022-09-29T03:16:09;4.95;;;3.30;;
33427;SDS011;19769;48.150;16.306;2022-09-29T03:18:35;5.82;;;3.45;;
33427;SDS011;19769;48.150;16.306;2022-09-29T03:21:01;5.18;;;3.67;;
33427;SDS011;19769;48.150;16.306;2022-09-29T03:23:27;4.35;;;3.42;;
33427;SDS011;19769;48.150;16.306;2022-09-29T03:25:53;5.00;;;3.80;;
33427;SDS011;19769;48.150;16.306;2022-09-29T03:28:19;4.63;;;3.85;;
33427;SDS011;19769;48.150;16.306;2022-09-29T03:30:44;4.97;;;3.65;;
33427;SDS011;19769;48.150;16.306;2022-09-29T03:33:10;4.40;;;3.67;;
33427;SDS011;19769;48.150;16.306;2022-09-29T03:35:36;4.10;;;3.22;;
33427;SDS011;19769;48.150;16.306;2022-09-29T03:38:02;5.43;;;3.67;;
33427;SDS011;19769;48.150;16.306;2022-09-29T03:40:28;4.70;;;3.53;;
33427;SDS011;19769;48.150;16.306;2022-09-29T03:42:54;4.25;;;3.17;;
33427;SDS011;19769;48.150;16.306;2022-09-29T03:45:20;4.28;;;3.00;;
33427;SDS011;19769;48.150;16.306;2022-09-29T03:47:46;3.92;;;2.50;;
33427;SDS011;19769;48.150;16.306;2022-09-29T03:50:12;3.60;;;2.58;;
33427;SDS011;19769;48.150;16.306;2022-09-29T03:52:38;3.58;;;2.60;;
33427;SDS011;19769;48.150;16.306;2022-09-29T03:55:04;3.00;;;2.28;;
33427;SDS011;19769;48.150;16.306;2022-09-29T03:57:30;3.17;;;2.20;;
33427;SDS011;19769;48.150;16.306;2022-09-29T03:59:56;3.22;;;2.30;;
33427;SDS011;19769;48.150;16.306;2022-09-29T04:02:22;4.38;;;2.00;;
33427;SDS011;19769;48.150;16.306;2022-09-29T04:04:49;4.28;;;1.88;;
33427;SDS011;19769;48.150;16.306;2022-09-29T04:07:15;3.05;;;1.90;;
33427;SDS011;19769;48.150;16.306;2022-09-29T04:09:41;2.75;;;1.60;;
33427;SDS011;19769;48.150;16.306;2022-09-29T04:12:07;2.00;;;1.48;;
33427;SDS011;19769;48.150;16.306;2022-09-29T04:14:34;2.63;;;1.30;;
33427;SDS011;19769;48.150;16.306;2022-09-29T04:17:00;2.00;;;1.40;;
33427;SDS011;19769;48.150;16.306;2022-09-29T04:19:27;2.47;;;1.42;;
33427;SDS011;19769;48.150;16.306;2022-09-29T04:21:53;2.28;;;1.60;;
33427;SDS011;19769;48.150;16.306;2022-09-29T04:24:19;1.85;;;1.30;;
33427;SDS011;19769;48.150;16.306;2022-09-29T04:26:45;2.50;;;1.40;;
33427;SDS011;19769;48.150;16.306;2022-09-29T04:29:11;3.22;;;1.40;;
33427;SDS011;19769;48.150;16.306;2022-09-29T04:31:37;2.70;;;1.40;;
33427;SDS011;19769;48.150;16.306;2022-09-29T04:34:04;2.95;;;1.50;;
33427;SDS011;19769;48.150;16.306;2022-09-29T04:36:30;2.78;;;1.40;;
33427;SDS011;19769;48.150;16.306;2022-09-29T04:38:56;2.10;;;1.50;;
33427;SDS011;19769;48.150;16.306;2022-09-29T04:41:22;2.22;;;1.25;;
33427;SDS011;19769;48.150;16.306;2022-09-29T04:43:48;2.08;;;1.40;;
33427;SDS011;19769;48.150;16.306;2022-09-29T04:46:14;1.85;;;1.25;;
33427;SDS011;19769;48.150;16.306;2022-09-29T04:48:40;2.70;;;1.40;;
33427;SDS011;19769;48.150;16.306;2022-09-29T04:51:06;2.10;;;1.40;;
33427;SDS011;19769;48.150;16.306;2022-09-29T04:53:34;2.05;;;1.40;;
33427;SDS011;19769;48.150;16.306;2022-09-29T04:56:05;3.00;;;1.30;;
33427;SDS011;19769;48.150;16.306;2022-09-29T04:58:32;2.65;;;1.48;;
33427;SDS011;19769;48.150;16.306;2022-09-29T05:01:05;2.47;;;1.85;;
33427;SDS011;19769;48.150;16.306;2022-09-29T05:03:31;2.75;;;1.70;;
33427;SDS011;19769;48.150;16.306;2022-09-29T05:05:57;3.20;;;1.83;;
33427;SDS011;19769;48.150;16.306;2022-09-29T05:08:23;3.22;;;1.95;;
33427;SDS011;19769;48.150;16.306;2022-09-29T05:10:49;2.78;;;1.85;;
33427;SDS011;19769;48.150;16.306;2022-09-29T05:13:17;4.00;;;2.30;;
33427;SDS011;19769;48.150;16.306;2022-09-29T05:15:43;4.28;;;2.55;;
33427;SDS011;19769;48.150;16.306;2022-09-29T05:18:09;2.67;;;1.85;;
33427;SDS011;19769;48.150;16.306;2022-09-29T05:20:35;4.05;;;2.00;;
33427;SDS011;19769;48.150;16.306;2022-09-29T05:23:01;2.45;;;1.67;;
33427;SDS011;19769;48.150;16.306;2022-09-29T05:25:34;3.38;;;1.63;;
33427;SDS011;19769;48.150;16.306;2022-09-29T05:28:00;2.58;;;1.90;;
33427;SDS011;19769;48.150;16.306;2022-09-29T05:30:26;2.90;;;1.60;;
33427;SDS011;19769;48.150;16.306;2022-09-29T05:32:52;2.67;;;1.60;;
33427;SDS011;19769;48.150;16.306;2022-09-29T05:35:18;3.15;;;1.55;;
33427;SDS011;19769;48.150;16.306;2022-09-29T05:37:45;3.85;;;2.00;;
33427;SDS011;19769;48.150;16.306;2022-09-29T05:40:11;2.75;;;1.63;;
33427;SDS011;19769;48.150;16.306;2022-09-29T05:42:37;2.80;;;1.90;;
33427;SDS011;19769;48.150;16.306;2022-09-29T05:45:05;3.40;;;1.60;;
33427;SDS011;19769;48.150;16.306;2022-09-29T05:47:34;3.55;;;1.60;;
33427;SDS011;19769;48.150;16.306;2022-09-29T05:50:00;2.60;;;2.15;;
33427;SDS011;19769;48.150;16.306;2022-09-29T05:52:27;4.22;;;2.20;;
33427;SDS011;19769;48.150;16.306;2022-09-29T05:54:54;6.00;;;2.42;;
33427;SDS011;19769;48.150;16.306;2022-09-29T05:57:20;4.05;;;2.15;;
33427;SDS011;19769;48.150;16.306;2022-09-29T05:59:46;2.92;;;1.85;;
33427;SDS011;19769;48.150;16.306;2022-09-29T06:02:12;3.95;;;2.30;;
33427;SDS011;19769;48.150;16.306;2022-09-29T06:04:38;2.78;;;2.20;;
33427;SDS011;19769;48.150;16.306;2022-09-29T06:07:04;3.05;;;2.20;;
33427;SDS011;19769;48.150;16.306;2022-09-29T06:09:32;3.45;;;2.15;;
33427;SDS011;19769;48.150;16.306;2022-09-29T06:11:58;3.97;;;2.40;;
33427;SDS011;19769;48.150;16.306;2022-09-29T06:14:24;3.42;;;2.45;;
33427;SDS011;19769;48.150;16.306;2022-09-29T06:16:50;3.90;;;2.45;;
33427;SDS011;19769;48.150;16.306;2022-09-29T06:19:16;3.58;;;2.30;;
33427;SDS011;19769;48.150;16.306;2022-09-29T06:21:42;4.15;;;2.40;;
33427;SDS011;19769;48.150;16.306;2022-09-29T06:24:08;6.25;;;2.22;;
33427;SDS011;19769;48.150;16.306;2022-09-29T06:26:34;4.72;;;2.20;;
33427;SDS011;19769;48.150;16.306;2022-09-29T06:29:00;3.10;;;1.90;;
33427;SDS011;19769;48.150;16.306;2022-09-29T06:31:27;3.00;;;2.00;;
33427;SDS011;19769;48.150;16.306;2022-09-29T06:33:58;4.40;;;2.03;;
33427;SDS011;19769;48.150;16.306;2022-09-29T06:36:26;5.10;;;2.03;;
33427;SDS011;19769;48.150;16.306;2022-09-29T06:39:13;3.63;;;1.85;;
33427;SDS011;19769;48.150;16.306;2022-09-29T06:41:39;4.90;;;2.15;;
33427;SDS011;19769;48.150;16.306;2022-09-29T06:44:06;2.75;;;1.80;;
33427;SDS011;19769;48.150;16.306;2022-09-29T06:46:33;4.32;;;2.20;;
33427;SDS011;19769;48.150;16.306;2022-09-29T06:49:00;2.83;;;1.90;;
33427;SDS011;19769;48.150;16.306;2022-09-29T06:51:26;3.28;;;1.70;;
33427;SDS011;19769;48.150;16.306;2022-09-29T06:53:52;2.85;;;1.90;;
33427;SDS011;19769;48.150;16.306;2022-09-29T06:56:18;3.50;;;2.13;;
33427;SDS011;19769;48.150;16.306;2022-09-29T06:58:44;3.00;;;1.80;;
33427;SDS011;19769;48.150;16.306;2022-09-29T07:01:10;2.65;;;1.77;;
33427;SDS011;19769;48.150;16.306;2022-09-29T07:03:37;3.25;;;1.90;;
33427;SDS011;19769;48.150;16.306;2022-09-29T07:06:04;3.50;;;2.17;;
33427;SDS011;19769;48.150;16.306;2022-09-29T07:08:31;3.10;;;2.13;;
33427;SDS011;19769;48.150;16.306;2022-09-29T07:11:00;3.65;;;1.92;;
33427;SDS011;19769;48.150;16.306;2022-09-29T07:13:27;3.72;;;1.67;;
33427;SDS011;19769;48.150;16.306;2022-09-29T07:15:53;4.28;;;2.30;;
33427;SDS011;19769;48.150;16.306;2022-09-29T07:18:19;2.28;;;1.80;;
33427;SDS011;19769;48.150;16.306;2022-09-29T07:20:45;2.70;;;1.88;;
33427;SDS011;19769;48.150;16.306;2022-09-29T07:23:11;4.05;;;1.80;;
33427;SDS011;19769;48.150;16.306;2022-09-29T07:25:37;2.97;;;1.65;;
33427;SDS011;19769;48.150;16.306;2022-09-29T07:28:04;4.53;;;1.90;;
33427;SDS011;19769;48.150;16.306;2022-09-29T07:30:29;3.72;;;1.90;;
33427;SDS011;19769;48.150;16.306;2022-09-29T07:32:55;2.72;;;1.73;;
33427;SDS011;19769;48.150;16.306;2022-09-29T07:35:22;4.55;;;1.98;;
33427;SDS011;19769;48.150;16.306;2022-09-29T07:37:52;2.60;;;1.70;;
33427;SDS011;19769;48.150;16.306;2022-09-29T07:40:19;2.60;;;1.60;;
33427;SDS011;19769;48.150;16.306;2022-09-29T07:42:48;2.17;;;1.58;;
33427;SDS011;19769;48.150;16.306;2022-09-29T07:45:18;2.13;;;1.48;;
33427;SDS011;19769;48.150;16.306;2022-09-29T07:47:44;2.08;;;1.50;;
33427;SDS011;19769;48.150;16.306;2022-09-29T07:50:10;3.22;;;1.50;;
33427;SDS011;19769;48.150;16.306;2022-09-29T07:52:37;4.22;;;1.60;;
33427;SDS011;19769;48.150;16.306;2022-09-29T07:55:03;4.10;;;2.30;;
33427;SDS011;19769;48.150;16.306;2022-09-29T07:57:30;5.85;;;3.00;;
33427;SDS011;19769;48.150;16.306;2022-09-29T07:59:55;3.92;;;1.83;;
33427;SDS011;19769;48.150;16.306;2022-09-29T08:02:23;3.97;;;1.70;;
33427;SDS011;19769;48.150;16.306;2022-09-29T08:04:49;2.35;;;1.60;;
33427;SDS011;19769;48.150;16.306;2022-09-29T08:07:15;1.88;;;1.00;;
33427;SDS011;19769;48.150;16.306;2022-09-29T08:09:41;1.65;;;1.20;;
33427;SDS011;19769;48.150;16.306;2022-09-29T08:12:07;2.40;;;1.60;;
33427;SDS011;19769;48.150;16.306;2022-09-29T08:14:33;2.60;;;1.40;;
33427;SDS011;19769;48.150;16.306;2022-09-29T08:16:59;1.60;;;1.10;;
33427;SDS011;19769;48.150;16.306;2022-09-29T08:19:25;2.28;;;1.20;;
33427;SDS011;19769;48.150;16.306;2022-09-29T08:21:52;2.25;;;1.10;;
33427;SDS011;19769;48.150;16.306;2022-09-29T08:24:18;2.42;;;1.15;;
33427;SDS011;19769;48.150;16.306;2022-09-29T08:26:44;1.75;;;1.23;;
33427;SDS011;19769;48.150;16.306;2022-09-29T08:29:13;2.72;;;1.20;;
33427;SDS011;19769;48.150;16.306;2022-09-29T08:31:39;2.28;;;1.25;;
33427;SDS011;19769;48.150;16.306;2022-09-29T08:34:08;1.67;;;1.20;;
33427;SDS011;19769;48.150;16.306;2022-09-29T08:36:34;1.45;;;1.20;;
33427;SDS011;19769;48.150;16.306;2022-09-29T08:39:00;1.35;;;1.00;;
33427;SDS011;19769;48.150;16.306;2022-09-29T08:41:50;2.60;;;1.00;;
33427;SDS011;19769;48.150;16.306;2022-09-29T08:44:28;2.00;;;1.20;;
33427;SDS011;19769;48.150;16.306;2022-09-29T08:49:52;2.45;;;1.10;;
33427;SDS011;19769;48.150;16.306;2022-09-29T08:52:27;1.77;;;1.10;;
33427;SDS011;19769;48.150;16.306;2022-09-29T08:55:30;1.45;;;1.10;;
33427;SDS011;19769;48.150;16.306;2022-09-29T08:57:59;2.05;;;1.00;;
33427;SDS011;19769;48.150;16.306;2022-09-29T09:00:39;3.92;;;1.30;;
33427;SDS011;19769;48.150;16.306;2022-09-29T09:11:17;1.80;;;1.20;;
33427;SDS011;19769;48.150;16.306;2022-09-29T09:19:38;2.58;;;1.20;;
33427;SDS011;19769;48.150;16.306;2022-09-29T09:22:54;2.38;;;1.20;;
33427;SDS011;19769;48.150;16.306;2022-09-29T09:25:31;3.25;;;1.60;;
33427;SDS011;19769;48.150;16.306;2022-09-29T09:28:03;1.90;;;1.33;;
33427;SDS011;19769;48.150;16.306;2022-09-29T09:30:51;2.55;;;1.40;;
33427;SDS011;19769;48.150;16.306;2022-09-29T09:36:28;1.83;;;1.10;;
33427;SDS011;19769;48.150;16.306;2022-09-29T09:38:53;1.50;;;1.00;;
33427;SDS011;19769;48.150;16.306;2022-09-29T09:41:22;2.40;;;1.27;;
33427;SDS011;19769;48.150;16.306;2022-09-29T09:43:55;1.67;;;1.20;;
33427;SDS011;19769;48.150;16.306;2022-09-29T09:46:30;2.67;;;1.48;;
33427;SDS011;19769;48.150;16.306;2022-09-29T09:52:24;2.10;;;1.17;;
33427;SDS011;19769;48.150;16.306;2022-09-29T09:55:00;2.58;;;1.30;;
33427;SDS011;19769;48.150;16.306;2022-09-29T10:00:39;2.17;;;1.02;;
33427;SDS011;19769;48.150;16.306;2022-09-29T10:03:08;1.70;;;1.20;;
33427;SDS011;19769;48.150;16.306;2022-09-29T10:05:37;1.40;;;1.10;;
33427;SDS011;19769;48.150;16.306;2022-09-29T10:08:08;2.42;;;1.02;;
33427;SDS011;19769;48.150;16.306;2022-09-29T10:10:49;1.83;;;1.10;;
33427;SDS011;19769;48.150;16.306;2022-09-29T10:13:14;2.65;;;0.95;;
33427;SDS011;19769;48.150;16.306;2022-09-29T10:15:42;1.10;;;0.90;;
33427;SDS011;19769;48.150;16.306;2022-09-29T10:18:14;1.58;;;0.90;;
33427;SDS011;19769;48.150;16.306;2022-09-29T10:20:51;1.92;;;0.85;;
33427;SDS011;19769;48.150;16.306;2022-09-29T10:23:24;3.15;;;0.95;;
33427;SDS011;19769;48.150;16.306;2022-09-29T10:25:53;1.83;;;1.00;;
33427;SDS011;19769;48.150;16.306;2022-09-29T10:28:20;2.47;;;1.02;;
33427;SDS011;19769;48.150;16.306;2022-09-29T10:30:47;2.08;;;1.52;;
33427;SDS011;19769;48.150;16.306;2022-09-29T10:33:14;2.05;;;1.00;;
33427;SDS011;19769;48.150;16.306;2022-09-29T10:35:43;3.10;;;1.70;;
33427;SDS011;19769;48.150;16.306;2022-09-29T10:38:15;2.28;;;1.30;;
33427;SDS011;19769;48.150;16.306;2022-09-29T10:40:59;3.60;;;1.20;;
33427;SDS011;19769;48.150;16.306;2022-09-29T10:43:36;1.65;;;0.90;;
33427;SDS011;19769;48.150;16.306;2022-09-29T10:46:03;3.13;;;1.20;;
33427;SDS011;19769;48.150;16.306;2022-09-29T10:49:05;1.08;;;0.90;;
33427;SDS011;19769;48.150;16.306;2022-09-29T10:51:39;1.85;;;0.90;;
33427;SDS011;19769;48.150;16.306;2022-09-29T10:54:13;2.40;;;1.05;;
33427;SDS011;19769;48.150;16.306;2022-09-29T10:56:44;2.47;;;1.48;;
33427;SDS011;19769;48.150;16.306;2022-09-29T10:59:10;1.85;;;1.20;;
33427;SDS011;19769;48.150;16.306;2022-09-29T11:01:42;2.60;;;1.83;;
33427;SDS011;19769;48.150;16.306;2022-09-29T11:04:17;2.38;;;1.52;;
33427;SDS011;19769;48.150;16.306;2022-09-29T11:06:44;1.23;;;0.98;;
33427;SDS011;19769;48.150;16.306;2022-09-29T11:14:27;3.35;;;2.80;;
33427;SDS011;19769;48.150;16.306;2022-09-29T11:16:55;1.98;;;1.17;;
33427;SDS011;19769;48.150;16.306;2022-09-29T11:19:21;2.42;;;1.50;;
33427;SDS011;19769;48.150;16.306;2022-09-29T11:26:56;2.28;;;1.00;;
33427;SDS011;19769;48.150;16.306;2022-09-29T11:45:00;2.33;;;1.50;;
33427;SDS011;19769;48.150;16.306;2022-09-29T11:50:12;3.97;;;1.80;;
33427;SDS011;19769;48.150;16.306;2022-09-29T11:58:19;2.22;;;1.65;;
33427;SDS011;19769;48.150;16.306;2022-09-29T12:01:12;2.88;;;2.13;;
33427;SDS011;19769;48.150;16.306;2022-09-29T12:03:45;4.13;;;3.10;;
33427;SDS011;19769;48.150;16.306;2022-09-29T12:12:45;7.90;;;1.85;;
33427;SDS011;19769;48.150;16.306;2022-09-29T12:17:56;4.22;;;2.33;;
33427;SDS011;19769;48.150;16.306;2022-09-29T12:20:31;7.75;;;2.08;;
33427;SDS011;19769;48.150;16.306;2022-09-29T12:23:01;3.45;;;1.70;;
33427;SDS011;19769;48.150;16.306;2022-09-29T12:25:32;3.40;;;1.63;;
33427;SDS011;19769;48.150;16.306;2022-09-29T12:28:06;3.40;;;1.35;;
33427;SDS011;19769;48.150;16.306;2022-09-29T12:33:24;10.30;;;2.42;;
33427;SDS011;19769;48.150;16.306;2022-09-29T12:39:12;4.68;;;1.50;;
33427;SDS011;19769;48.150;16.306;2022-09-29T12:42:12;4.50;;;1.35;;
33427;SDS011;19769;48.150;16.306;2022-09-29T12:45:07;2.00;;;1.27;;
33427;SDS011;19769;48.150;16.306;2022-09-29T12:50:16;3.97;;;1.40;;
33427;SDS011;19769;48.150;16.306;2022-09-29T12:53:06;2.53;;;0.90;;
33427;SDS011;19769;48.150;16.306;2022-09-29T12:58:40;2.40;;;1.15;;
33427;SDS011;19769;48.150;16.306;2022-09-29T13:04:12;3.78;;;2.00;;
33427;SDS011;19769;48.150;16.306;2022-09-29T13:28:24;2.40;;;1.48;;
33427;SDS011;19769;48.150;16.306;2022-09-29T13:31:16;2.70;;;1.42;;
33427;SDS011;19769;48.150;16.306;2022-09-29T13:33:52;2.60;;;1.48;;
33427;SDS011;19769;48.150;16.306;2022-09-29T13:36:38;3.47;;;2.00;;
33427;SDS011;19769;48.150;16.306;2022-09-29T13:47:55;2.03;;;1.30;;
33427;SDS011;19769;48.150;16.306;2022-09-29T13:55:50;3.40;;;1.60;;
33427;SDS011;19769;48.150;16.306;2022-09-29T13:58:22;2.75;;;1.60;;
33427;SDS011;19769;48.150;16.306;2022-09-29T14:01:10;1.65;;;1.30;;
33427;SDS011;19769;48.150;16.306;2022-09-29T14:03:54;2.15;;;1.20;;
33427;SDS011;19769;48.150;16.306;2022-09-29T14:09:07;2.78;;;1.30;;
33427;SDS011;19769;48.150;16.306;2022-09-29T14:11:46;3.28;;;1.50;;
33427;SDS011;19769;48.150;16.306;2022-09-29T14:14:18;2.13;;;1.00;;
33427;SDS011;19769;48.150;16.306;2022-09-29T14:17:01;2.97;;;1.30;;
33427;SDS011;19769;48.150;16.306;2022-09-29T14:27:57;2.58;;;1.40;;
33427;SDS011;19769;48.150;16.306;2022-09-29T14:35:35;2.60;;;1.30;;
33427;SDS011;19769;48.150;16.306;2022-09-29T14:38:13;2.50;;;1.60;;
33427;SDS011;19769;48.150;16.306;2022-09-29T15:00:59;2.30;;;1.58;;
33427;SDS011;19769;48.150;16.306;2022-09-29T15:06:14;2.55;;;2.10;;
33427;SDS011;19769;48.150;16.306;2022-09-29T15:08:54;2.97;;;1.98;;
33427;SDS011;19769;48.150;16.306;2022-09-29T15:25:27;5.20;;;2.60;;
33427;SDS011;19769;48.150;16.306;2022-09-29T15:28:36;3.53;;;2.10;;
33427;SDS011;19769;48.150;16.306;2022-09-29T15:30:48;4.10;;;2.30;;
33427;SDS011;19769;48.150;16.306;2022-09-29T15:33:29;3.15;;;2.30;;
33427;SDS011;19769;48.150;16.306;2022-09-29T15:38:37;3.78;;;2.60;;
33427;SDS011;19769;48.150;16.306;2022-09-29T15:52:04;3.90;;;2.67;;
33427;SDS011;19769;48.150;16.306;2022-09-29T15:54:37;2.95;;;2.20;;
33427;SDS011;19769;48.150;16.306;2022-09-29T15:57:26;2.83;;;2.03;;
33427;SDS011;19769;48.150;16.306;2022-09-29T16:03:33;2.95;;;2.03;;
33427;SDS011;19769;48.150;16.306;2022-09-29T16:05:38;2.53;;;1.60;;
33427;SDS011;19769;48.150;16.306;2022-09-29T16:08:17;4.07;;;1.70;;
33427;SDS011;19769;48.150;16.306;2022-09-29T16:13:37;2.30;;;1.60;;
33427;SDS011;19769;48.150;16.306;2022-09-29T16:16:08;3.47;;;2.00;;
33427;SDS011;19769;48.150;16.306;2022-09-29T16:21:04;2.88;;;2.00;;
33427;SDS011;19769;48.150;16.306;2022-09-29T16:23:58;3.53;;;2.00;;
33427;SDS011;19769;48.150;16.306;2022-09-29T16:26:40;3.30;;;1.80;;
33427;SDS011;19769;48.150;16.306;2022-09-29T16:31:34;3.58;;;2.10;;
33427;SDS011;19769;48.150;16.306;2022-09-29T16:34:03;3.55;;;1.92;;
33427;SDS011;19769;48.150;16.306;2022-09-29T16:36:46;3.75;;;2.00;;
33427;SDS011;19769;48.150;16.306;2022-09-29T16:39:12;3.55;;;2.28;;
33427;SDS011;19769;48.150;16.306;2022-09-29T16:41:40;4.18;;;2.72;;
33427;SDS011;19769;48.150;16.306;2022-09-29T16:47:02;7.18;;;3.80;;
33427;SDS011;19769;48.150;16.306;2022-09-29T16:52:22;4.68;;;2.80;;
33427;SDS011;19769;48.150;16.306;2022-09-29T16:55:05;7.40;;;5.05;;
33427;SDS011;19769;48.150;16.306;2022-09-29T17:00:21;8.75;;;6.30;;
33427;SDS011;19769;48.150;16.306;2022-09-29T17:02:51;7.13;;;4.03;;
33427;SDS011;19769;48.150;16.306;2022-09-29T17:05:19;5.03;;;3.10;;
33427;SDS011;19769;48.150;16.306;2022-09-29T17:07:47;3.80;;;2.40;;
33427;SDS011;19769;48.150;16.306;2022-09-29T17:10:15;3.38;;;2.30;;
33427;SDS011;19769;48.150;16.306;2022-09-29T17:12:43;4.15;;;2.60;;
33427;SDS011;19769;48.150;16.306;2022-09-29T17:15:13;3.92;;;2.40;;
33427;SDS011;19769;48.150;16.306;2022-09-29T17:17:43;3.08;;;1.95;;
33427;SDS011;19769;48.150;16.306;2022-09-29T17:20:12;3.17;;;1.90;;
33427;SDS011;19769;48.150;16.306;2022-09-29T17:22:42;3.17;;;2.17;;
33427;SDS011;19769;48.150;16.306;2022-09-29T17:25:13;3.83;;;2.00;;
33427;SDS011;19769;48.150;16.306;2022-09-29T17:27:40;3.28;;;2.10;;
33427;SDS011;19769;48.150;16.306;2022-09-29T17:30:26;2.83;;;2.10;;
33427;SDS011;19769;48.150;16.306;2022-09-29T17:32:53;3.63;;;2.50;;
33427;SDS011;19769;48.150;16.306;2022-09-29T17:35:22;3.50;;;2.15;;
33427;SDS011;19769;48.150;16.306;2022-09-29T17:37:51;5.20;;;2.25;;
33427;SDS011;19769;48.150;16.306;2022-09-29T17:42:49;3.10;;;2.17;;
33427;SDS011;19769;48.150;16.306;2022-09-29T17:45:16;3.30;;;2.00;;
33427;SDS011;19769;48.150;16.306;2022-09-29T17:47:43;3.10;;;1.67;;
33427;SDS011;19769;48.150;16.306;2022-09-29T17:50:23;2.95;;;1.73;;
33427;SDS011;19769;48.150;16.306;2022-09-29T17:52:57;3.10;;;2.13;;
33427;SDS011;19769;48.150;16.306;2022-09-29T17:55:24;3.90;;;1.70;;
33427;SDS011;19769;48.150;16.306;2022-09-29T17:57:51;2.83;;;1.70;;
33427;SDS011;19769;48.150;16.306;2022-09-29T18:00:19;2.70;;;1.80;;
33427;SDS011;19769;48.150;16.306;2022-09-29T18:02:49;2.15;;;1.48;;
33427;SDS011;19769;48.150;16.306;2022-09-29T18:05:27;4.18;;;2.78;;
33427;SDS011;19769;48.150;16.306;2022-09-29T18:07:55;11.10;;;7.00;;
33427;SDS011;19769;48.150;16.306;2022-09-29T18:10:24;9.02;;;5.75;;
33427;SDS011;19769;48.150;16.306;2022-09-29T18:12:51;4.07;;;2.75;;
33427;SDS011;19769;48.150;16.306;2022-09-29T18:15:17;2.55;;;1.70;;
33427;SDS011;19769;48.150;16.306;2022-09-29T18:17:43;2.63;;;1.70;;
33427;SDS011;19769;48.150;16.306;2022-09-29T18:20:19;5.07;;;2.90;;
33427;SDS011;19769;48.150;16.306;2022-09-29T18:22:46;5.28;;;3.92;;
33427;SDS011;19769;48.150;16.306;2022-09-29T18:25:13;3.80;;;2.38;;
33427;SDS011;19769;48.150;16.306;2022-09-29T18:27:41;3.25;;;2.10;;
33427;SDS011;19769;48.150;16.306;2022-09-29T18:30:14;2.97;;;1.90;;
33427;SDS011;19769;48.150;16.306;2022-09-29T18:32:44;4.68;;;2.90;;
33427;SDS011;19769;48.150;16.306;2022-09-29T18:35:13;5.22;;;3.92;;
33427;SDS011;19769;48.150;16.306;2022-09-29T18:37:40;3.65;;;2.38;;
33427;SDS011;19769;48.150;16.306;2022-09-29T18:40:07;3.85;;;2.00;;
33427;SDS011;19769;48.150;16.306;2022-09-29T18:42:38;3.33;;;2.30;;
33427;SDS011;19769;48.150;16.306;2022-09-29T18:45:13;8.13;;;6.05;;
33427;SDS011;19769;48.150;16.306;2022-09-29T18:47:48;7.22;;;4.43;;
33427;SDS011;19769;48.150;16.306;2022-09-29T18:50:18;8.80;;;6.28;;
33427;SDS011;19769;48.150;16.306;2022-09-29T18:52:49;6.55;;;4.10;;
33427;SDS011;19769;48.150;16.306;2022-09-29T18:55:17;3.08;;;2.38;;